Time;durP1;ratioP1;P1;durP2;ratioP2;P2;SDS_P1;SDS_P2;PMS_P1;PMS_P2;Temp;Humidity;BMP_temperature;BMP_pressure;BME280_temperature;BME280_humidity;BME280_pressure;Samples;Min_cycle;Max_cycle;Signal;HPM_P1;HPM_P2
2023/12/22 00:01:08;;;;;;;20.65;3.38;;;;;;;4.12;67.64;98090.34;5015160;28;20226;-45
2023/12/22 00:03:33;;;;;;;16.75;3.58;;;;;;;4.09;68.02;98081.72;5030288;28;20647;-45
2023/12/22 00:05:59;;;;;;;14.05;3.15;;;;;;;4.05;67.97;98088.97;5015038;28;20192;-44
2023/12/22 00:08:24;;;;;;;15.35;3.13;;;;;;;3.98;68.13;98105.28;5030118;28;20279;-43
2023/12/22 00:10:50;;;;;;;16.70;3.20;;;;;;;4.01;67.99;98123.66;5030111;28;20202;-43
2023/12/22 00:13:15;;;;;;;21.83;3.88;;;;;;;4.03;67.79;98106.75;5029685;28;20577;-45
2023/12/22 00:15:42;;;;;;;24.38;3.70;;;;;;;4.00;68.62;98106.94;5030451;28;20179;-45
2023/12/22 00:18:08;;;;;;;17.30;3.38;;;;;;;3.91;69.32;98118.88;5029962;28;20274;-44
2023/12/22 00:20:33;;;;;;;21.73;4.38;;;;;;;4.03;68.90;98092.66;5029957;28;20271;-46
2023/12/22 00:22:59;;;;;;;27.30;4.13;;;;;;;3.90;69.70;98133.06;5029788;28;20288;-45
2023/12/22 00:25:24;;;;;;;15.48;3.58;;;;;;;3.75;70.92;98148.91;5029842;28;21572;-42
2023/12/22 00:27:50;;;;;;;23.75;4.13;;;;;;;3.72;71.50;98158.75;5030001;28;20707;-44
2023/12/22 00:30:15;;;;;;;27.45;4.60;;;;;;;3.71;72.14;98175.53;5029574;28;20283;-43
2023/12/22 00:32:41;;;;;;;20.55;4.43;;;;;;;3.71;72.22;98178.19;5028485;28;20588;-44
2023/12/22 00:35:07;;;;;;;19.40;3.85;;;;;;;3.67;73.00;98189.91;5029755;28;20207;-42
2023/12/22 00:37:32;;;;;;;20.42;3.75;;;;;;;3.58;73.40;98203.59;5028881;28;20180;-45
2023/12/22 00:39:57;;;;;;;22.45;3.17;;;;;;;3.69;73.75;98211.84;5029740;28;20234;-45
2023/12/22 00:42:23;;;;;;;18.92;4.15;;;;;;;3.69;74.04;98225.06;5028381;28;20257;-45
2023/12/22 00:44:48;;;;;;;26.50;3.67;;;;;;;3.64;74.47;98228.91;5011708;28;20192;-45
2023/12/22 00:47:14;;;;;;;20.10;3.78;;;;;;;3.62;74.55;98230.78;5028666;28;20257;-45
2023/12/22 00:49:39;;;;;;;16.80;3.17;;;;;;;3.59;75.16;98226.50;5014482;28;20322;-43
2023/12/22 00:52:05;;;;;;;18.77;2.88;;;;;;;3.53;75.31;98255.09;5028314;28;20603;-43
2023/12/22 00:54:31;;;;;;;24.40;3.72;;;;;;;3.55;75.46;98240.00;5012299;28;20261;-44
2023/12/22 00:56:57;;;;;;;17.85;4.10;;;;;;;3.48;75.42;98257.97;5029283;28;20188;-43
2023/12/22 00:59:24;;;;;;;21.27;3.03;;;;;;;3.58;75.08;98242.47;5027343;28;20196;-44
2023/12/22 01:01:49;;;;;;;16.35;2.85;;;;;;;3.60;75.06;98236.16;5029149;28;20203;-45
2023/12/22 01:04:15;;;;;;;11.15;2.40;;;;;;;3.50;74.96;98246.38;5029055;28;20530;-44
2023/12/22 01:06:40;;;;;;;16.30;2.53;;;;;;;3.41;74.86;98259.19;5029463;28;20523;-42
2023/12/22 01:09:06;;;;;;;13.90;2.50;;;;;;;3.44;74.92;98243.19;5029313;28;20202;-43
2023/12/22 01:11:32;;;;;;;18.35;2.65;;;;;;;3.57;74.60;98243.41;5011823;28;20164;-44
2023/12/22 01:13:57;;;;;;;14.70;2.75;;;;;;;3.48;75.40;98255.34;5012048;28;20203;-42
2023/12/22 01:16:23;;;;;;;13.63;2.33;;;;;;;3.59;74.97;98250.34;5029145;28;20184;-42
2023/12/22 01:18:50;;;;;;;22.52;3.05;;;;;;;3.52;75.08;98254.25;5029224;28;20183;-45
2023/12/22 01:21:17;;;;;;;17.67;3.78;;;;;;;3.50;74.29;98224.34;5029161;28;20195;-42
2023/12/22 01:23:42;;;;;;;18.35;3.22;;;;;;;3.59;74.37;98230.97;5028671;28;20677;-43
2023/12/22 01:26:08;;;;;;;13.93;2.83;;;;;;;3.65;74.08;98223.56;5008486;28;20184;-43
2023/12/22 01:28:34;;;;;;;11.70;2.75;;;;;;;3.65;74.29;98241.22;5028891;28;20184;-43
2023/12/22 01:31:00;;;;;;;17.63;3.63;;;;;;;3.62;74.60;98250.16;5027325;28;20291;-44
2023/12/22 01:33:26;;;;;;;23.10;3.53;;;;;;;3.68;75.17;98264.91;5028433;28;20631;-45
2023/12/22 01:35:51;;;;;;;17.60;3.30;;;;;;;3.63;75.43;98267.78;5028408;28;20672;-44
2023/12/22 01:38:17;;;;;;;13.75;3.50;;;;;;;3.58;76.18;98268.94;5010507;28;20226;-43
2023/12/22 01:40:43;;;;;;;13.30;2.50;;;;;;;3.62;76.06;98263.41;5028808;28;20203;-43
2023/12/22 01:43:08;;;;;;;17.90;3.50;;;;;;;3.58;76.05;98259.19;5011416;28;20588;-44
2023/12/22 01:45:34;;;;;;;15.90;2.70;;;;;;;3.59;76.30;98250.34;5028766;28;20305;-43
2023/12/22 01:48:00;;;;;;;15.98;3.10;;;;;;;3.60;76.15;98259.97;5027447;28;20655;-43
2023/12/22 01:50:26;;;;;;;22.80;3.42;;;;;;;3.60;76.56;98262.63;5012118;28;20190;-44
2023/12/22 01:52:52;;;;;;;17.55;3.47;;;;;;;3.61;76.86;98260.88;5028342;28;20285;-44
2023/12/22 01:55:18;;;;;;;17.52;3.20;;;;;;;3.55;77.08;98277.91;5030213;28;20214;-44
2023/12/22 01:57:44;;;;;;;24.75;5.05;;;;;;;3.60;77.72;98282.97;5033026;28;20195;-45
2023/12/22 02:00:11;;;;;;;23.50;3.50;;;;;;;3.57;77.69;98291.91;5031948;28;20211;-45
2023/12/22 02:02:42;;;;;;;17.92;2.83;;;;;;;3.58;78.48;98292.78;5032121;28;20191;-46
2023/12/22 02:05:11;;;;;;;19.80;3.78;;;;;;;3.55;78.57;98300.88;5032830;28;20202;-44
2023/12/22 02:07:43;;;;;;;26.10;3.13;;;;;;;3.56;79.08;98284.91;5032080;28;20263;-46
2023/12/22 02:10:09;;;;;;;17.98;3.70;;;;;;;3.61;78.66;98300.56;5032358;28;20192;-45
2023/12/22 02:12:36;;;;;;;20.13;4.25;;;;;;;3.53;79.42;98308.03;5032178;28;20778;-44
2023/12/22 02:15:02;;;;;;;20.77;3.05;;;;;;;3.58;79.48;98295.41;5031195;28;20215;-46
2023/12/22 02:17:44;;;;;;;20.08;3.47;;;;;;;3.58;80.09;98304.22;5031155;28;20196;-44
2023/12/22 02:20:11;;;;;;;10.57;2.95;;;;;;;3.62;79.48;98310.22;5032049;28;20655;-45
2023/12/22 02:22:36;;;;;;;22.33;3.13;;;;;;;3.63;79.30;98302.22;5031826;28;20203;-43
2023/12/22 02:25:01;;;;;;;16.85;3.17;;;;;;;3.64;79.16;98284.53;5032437;28;20519;-45
2023/12/22 02:27:49;;;;;;;17.60;3.40;;;;;;;3.74;78.12;98296.38;5032091;28;20183;-44
2023/12/22 02:30:26;;;;;;;12.30;2.72;;;;;;;3.65;78.36;98296.81;5030959;28;20207;-45
2023/12/22 02:32:56;;;;;;;14.65;2.45;;;;;;;3.44;79.85;98310.22;5031226;28;20557;-45
2023/12/22 02:35:25;;;;;;;19.45;2.88;;;;;;;3.39;81.65;98353.69;5024625;28;20199;-46
2023/12/22 02:37:52;;;;;;;14.80;2.50;;;;;;;3.08;83.82;98357.81;5030622;28;20548;-44
2023/12/22 02:40:19;;;;;;;18.52;2.55;;;;;;;2.89;85.80;98379.84;5014309;28;20625;-45
2023/12/22 02:42:45;;;;;;;10.52;1.85;;;;;;;2.67;87.83;98387.94;5031207;28;20265;-44
2023/12/22 02:45:15;;;;;;;14.73;2.47;;;;;;;2.55;89.67;98379.69;5031508;28;20184;-46
2023/12/22 02:47:40;;;;;;;11.68;1.90;;;;;;;2.38;91.87;98386.56;5029912;28;20176;-45
2023/12/22 02:50:07;;;;;;;14.15;2.72;;;;;;;2.44;93.27;98369.59;5030981;28;20698;-45
2023/12/22 02:52:33;;;;;;;8.65;1.98;;;;;;;2.45;95.05;98385.38;5029322;28;20236;-42
2023/12/22 02:54:59;;;;;;;10.75;1.75;;;;;;;2.54;95.89;98393.84;5017100;28;20294;-43
2023/12/22 02:57:24;;;;;;;10.75;2.28;;;;;;;2.57;96.91;98420.97;5033583;28;20188;-41
2023/12/22 02:59:49;;;;;;;20.48;2.58;;;;;;;2.42;97.88;98463.94;5033488;28;20734;-42
2023/12/22 03:02:15;;;;;;;8.52;1.35;;;;;;;2.04;98.92;98409.19;5031519;28;20571;-41
2023/12/22 03:04:41;;;;;;;10.02;1.23;;;;;;;1.93;98.93;98432.53;5019515;28;20711;-43
2023/12/22 03:07:06;;;;;;;6.90;1.50;;;;;;;1.96;98.83;98415.72;5017574;28;20183;-41
2023/12/22 03:09:34;;;;;;;9.77;1.75;;;;;;;2.03;99.43;98423.31;5033192;28;20203;-43
2023/12/22 03:12:03;;;;;;;5.70;1.17;;;;;;;2.01;99.51;98411.97;5032962;28;20681;-44
2023/12/22 03:14:30;;;;;;;10.63;1.35;;;;;;;1.97;100.00;98415.66;5031336;28;20580;-45
2023/12/22 03:16:57;;;;;;;8.82;1.58;;;;;;;1.96;100.00;98424.47;5009065;28;20216;-44
2023/12/22 03:19:22;;;;;;;11.75;2.00;;;;;;;1.91;100.00;98434.38;5017001;28;20604;-40
2023/12/22 03:21:48;;;;;;;8.85;1.95;;;;;;;1.91;100.00;98438.81;5031784;28;20235;-39
2023/12/22 03:24:14;;;;;;;10.68;2.40;;;;;;;1.89;100.00;98438.88;5033273;28;20195;-40
2023/12/22 03:26:39;;;;;;;11.15;2.30;;;;;;;1.85;100.00;98427.56;5033382;28;20783;-44
2023/12/22 03:29:05;;;;;;;10.63;2.30;;;;;;;1.78;100.00;98434.03;5030688;28;20187;-43
2023/12/22 03:31:30;;;;;;;16.35;1.80;;;;;;;1.83;100.00;98442.59;5030912;28;20192;-44
2023/12/22 03:33:56;;;;;;;8.80;2.33;;;;;;;1.92;100.00;98429.97;5031150;28;20678;-45
2023/12/22 03:36:24;;;;;;;10.18;2.47;;;;;;;1.98;100.00;98425.28;5005661;28;20229;-44
2023/12/22 03:38:50;;;;;;;9.90;2.00;;;;;;;2.02;100.00;98424.22;5012074;28;20191;-43
2023/12/22 03:41:15;;;;;;;10.77;1.95;;;;;;;2.14;100.00;98411.41;5013352;28;20194;-41
2023/12/22 03:43:42;;;;;;;11.20;1.98;;;;;;;2.22;100.00;98410.16;5031917;28;20219;-43
2023/12/22 03:46:07;;;;;;;5.15;1.88;;;;;;;2.24;100.00;98388.97;5031643;28;20188;-41
2023/12/22 03:48:33;;;;;;;12.15;1.58;;;;;;;2.30;100.00;98379.94;5031032;28;20196;-43
2023/12/22 03:50:58;;;;;;;6.70;1.65;;;;;;;2.37;100.00;98363.72;5031316;28;20587;-41
2023/12/22 03:53:24;;;;;;;13.85;2.00;;;;;;;2.48;100.00;98363.25;5032180;28;20200;-42
2023/12/22 03:55:49;;;;;;;10.02;1.60;;;;;;;2.51;100.00;98371.03;5032364;28;20188;-42
2023/12/22 03:58:14;;;;;;;18.67;2.47;;;;;;;2.59;99.97;98379.47;5029901;28;20214;-39
2023/12/22 04:00:40;;;;;;;9.65;1.98;;;;;;;2.64;99.33;98387.19;5031076;28;20577;-41
2023/12/22 04:03:05;;;;;;;12.75;2.40;;;;;;;2.72;98.40;98398.28;5031525;28;20227;-43
2023/12/22 04:05:31;;;;;;;12.45;1.80;;;;;;;2.70;97.68;98407.22;5030915;28;20214;-41
2023/12/22 04:07:57;;;;;;;14.65;2.53;;;;;;;2.71;97.71;98406.28;5030815;28;20271;-41
2023/12/22 04:10:22;;;;;;;14.15;2.38;;;;;;;2.54;98.02;98407.91;5030639;28;20195;-41
2023/12/22 04:12:48;;;;;;;19.48;2.28;;;;;;;2.44;98.70;98401.31;5030781;28;20215;-42
2023/12/22 04:15:13;;;;;;;8.18;2.30;;;;;;;2.29;99.73;98410.75;5030659;28;20230;-45
2023/12/22 04:17:39;;;;;;;12.48;2.00;;;;;;;2.10;100.00;98396.63;5028192;28;20475;-43
2023/12/22 04:20:06;;;;;;;10.40;2.10;;;;;;;2.10;100.00;98394.88;5031730;28;20259;-44
2023/12/22 04:22:32;;;;;;;14.82;2.45;;;;;;;2.10;100.00;98400.16;5030773;28;20196;-46
2023/12/22 04:24:58;;;;;;;14.32;2.88;;;;;;;2.11;100.00;98404.50;5014518;28;20257;-41
2023/12/22 04:27:24;;;;;;;9.45;2.13;;;;;;;2.17;100.00;98406.03;4998070;28;20176;-41
2023/12/22 04:29:50;;;;;;;13.00;2.17;;;;;;;2.14;100.00;98404.34;5031924;28;20594;-44
2023/12/22 04:32:15;;;;;;;11.52;2.38;;;;;;;2.11;100.00;98398.34;5013709;28;20200;-44
2023/12/22 04:34:41;;;;;;;17.35;2.53;;;;;;;2.11;100.00;98386.00;5029877;28;20204;-44
2023/12/22 04:37:07;;;;;;;12.05;2.42;;;;;;;2.20;100.00;98388.25;5028919;28;20569;-47
2023/12/22 04:39:32;;;;;;;18.85;2.65;;;;;;;2.28;100.00;98372.06;5014628;28;20192;-39
2023/12/22 04:41:59;;;;;;;16.65;3.25;;;;;;;2.29;100.00;98380.84;5031169;28;20544;-42
2023/12/22 04:44:25;;;;;;;12.80;2.38;;;;;;;2.30;99.39;98379.94;5019625;28;20180;-41
2023/12/22 04:46:51;;;;;;;12.57;2.35;;;;;;;2.30;99.03;98350.88;5030064;28;20669;-42
2023/12/22 04:49:16;;;;;;;13.00;2.78;;;;;;;2.36;98.45;98351.47;5029034;28;20664;-43
2023/12/22 04:51:42;;;;;;;17.17;2.67;;;;;;;2.31;98.31;98369.28;5029417;28;20200;-42
2023/12/22 04:54:07;;;;;;;18.13;2.67;;;;;;;2.31;98.12;98355.22;5030079;28;20207;-43
2023/12/22 04:56:33;;;;;;;8.38;2.92;;;;;;;2.31;97.81;98331.44;5012637;28;20186;-43
2023/12/22 04:58:58;;;;;;;20.70;3.10;;;;;;;2.26;98.01;98366.00;5029645;28;20630;-43
2023/12/22 05:01:24;;;;;;;26.80;2.85;;;;;;;2.26;98.17;98361.56;5027126;28;20184;-42
2023/12/22 05:03:49;;;;;;;17.73;2.92;;;;;;;2.21;97.83;98360.06;5029608;28;20180;-42
2023/12/22 05:06:15;;;;;;;23.35;3.25;;;;;;;2.28;97.84;98350.94;5013022;28;20598;-44
2023/12/22 05:08:40;;;;;;;18.23;3.50;;;;;;;2.36;97.23;98362.03;5031646;22;20466;-42
2023/12/22 05:11:06;;;;;;;16.42;2.78;;;;;;;2.39;96.67;98401.50;5007393;28;20204;-42
2023/12/22 05:13:31;;;;;;;22.27;3.17;;;;;;;2.47;95.25;98370.31;5009133;28;20200;-42
2023/12/22 05:15:57;;;;;;;16.52;3.42;;;;;;;2.47;94.47;98367.69;5009745;28;20180;-43
2023/12/22 05:18:23;;;;;;;16.55;3.13;;;;;;;2.59;93.29;98353.03;5008619;28;20189;-43
2023/12/22 05:20:48;;;;;;;20.10;2.58;;;;;;;2.64;92.58;98368.69;5009287;28;20275;-41
2023/12/22 05:23:15;;;;;;;12.88;2.20;;;;;;;2.58;92.03;98351.34;5009176;28;20303;-42
2023/12/22 05:25:41;;;;;;;15.57;2.20;;;;;;;2.62;90.95;98365.25;5009662;28;20173;-41
2023/12/22 05:28:06;;;;;;;14.45;2.88;;;;;;;2.62;90.49;98373.19;5009337;28;20176;-42
2023/12/22 05:30:32;;;;;;;15.23;3.33;;;;;;;2.57;90.10;98368.13;5009164;28;20633;-41
2023/12/22 05:32:57;;;;;;;23.38;3.65;;;;;;;2.62;89.67;98363.50;5009446;28;20674;-44
2023/12/22 05:35:22;;;;;;;15.88;2.55;;;;;;;2.61;89.31;98366.19;5009675;28;20204;-43
2023/12/22 05:37:48;;;;;;;17.00;3.00;;;;;;;2.58;88.83;98371.59;5009326;28;20192;-42
2023/12/22 05:40:13;;;;;;;17.08;2.83;;;;;;;2.56;88.50;98374.34;5008136;28;20180;-40
2023/12/22 05:42:39;;;;;;;17.45;3.20;;;;;;;2.58;88.65;98372.50;5009365;28;20220;-42
2023/12/22 05:45:06;;;;;;;19.65;3.55;;;;;;;2.58;88.46;98395.41;5009448;28;20199;-42
2023/12/22 05:47:32;;;;;;;21.75;3.13;;;;;;;2.73;87.83;98392.06;5007705;28;20686;-42
2023/12/22 05:49:57;;;;;;;19.55;3.42;;;;;;;2.71;87.64;98380.69;5024572;28;20181;-42
2023/12/22 05:52:23;;;;;;;27.10;3.97;;;;;;;2.68;87.39;98380.84;5008782;28;20303;-42
2023/12/22 05:54:48;;;;;;;11.27;2.65;;;;;;;2.81;86.91;98389.06;5009681;28;20229;-42
2023/12/22 05:57:14;;;;;;;28.77;3.65;;;;;;;2.88;86.59;98396.63;5024375;28;20546;-42
2023/12/22 05:59:39;;;;;;;22.10;3.25;;;;;;;2.84;86.49;98402.16;5008337;28;20199;-42
2023/12/22 06:02:05;;;;;;;13.30;3.00;;;;;;;2.88;85.61;98391.34;5008951;28;20549;-43
2023/12/22 06:04:30;;;;;;;19.95;2.85;;;;;;;2.82;85.21;98396.06;5009555;28;20184;-43
2023/12/22 06:06:56;;;;;;;11.27;2.38;;;;;;;2.91;84.69;98406.25;5008801;28;20208;-42
2023/12/22 06:09:22;;;;;;;11.68;2.30;;;;;;;2.88;84.41;98409.88;5009059;28;20267;-43
2023/12/22 06:11:48;;;;;;;15.07;2.85;;;;;;;2.88;84.54;98409.00;5009067;28;20211;-42
2023/12/22 06:14:13;;;;;;;14.18;2.67;;;;;;;2.94;83.80;98413.19;5009416;28;20291;-43
2023/12/22 06:16:39;;;;;;;10.65;2.05;;;;;;;2.98;83.36;98412.09;5009605;28;20193;-43
2023/12/22 06:19:05;;;;;;;10.88;2.08;;;;;;;2.88;83.46;98422.25;5009394;28;20176;-42
2023/12/22 06:21:30;;;;;;;11.70;2.30;;;;;;;2.90;83.64;98415.09;5009034;28;20187;-41
2023/12/22 06:23:56;;;;;;;9.13;1.73;;;;;;;2.88;83.53;98438.09;5009283;28;20173;-43
2023/12/22 06:26:21;;;;;;;14.25;2.65;;;;;;;2.95;83.94;98441.31;5009187;28;20234;-43
2023/12/22 06:28:47;;;;;;;10.70;2.25;;;;;;;2.82;84.12;98441.91;5007596;28;20227;-42
2023/12/22 06:31:20;;;;;;;10.38;2.05;;;;;;;2.78;84.02;98450.03;5009264;28;20311;-42
2023/12/22 06:33:47;;;;;;;11.93;1.92;;;;;;;2.80;84.25;98471.97;5008382;28;20200;-41
2023/12/22 06:36:22;;;;;;;19.45;2.95;;;;;;;2.77;84.32;98469.47;5009516;28;20234;-42
2023/12/22 06:38:49;;;;;;;9.18;1.92;;;;;;;2.85;84.59;98507.88;5010429;28;20271;-45
2023/12/22 06:41:26;;;;;;;5.18;1.83;;;;;;;2.89;84.74;98498.03;5010239;28;20722;-43
2023/12/22 06:43:52;;;;;;;13.20;3.03;;;;;;;2.85;85.73;98502.56;5028996;28;20560;-42
2023/12/22 06:46:18;;;;;;;9.93;1.42;;;;;;;2.81;85.67;98519.50;5012142;28;20689;-45
2023/12/22 06:48:45;;;;;;;9.90;1.48;;;;;;;2.68;86.99;98532.38;5012802;28;20187;-44
2023/12/22 06:51:21;;;;;;;10.20;1.70;;;;;;;2.54;88.15;98544.50;5012645;28;20200;-43
2023/12/22 06:53:48;;;;;;;7.45;1.30;;;;;;;2.45;89.07;98562.47;5010060;28;20661;-44
2023/12/22 06:56:21;;;;;;;10.52;2.17;;;;;;;2.32;90.06;98576.22;5012336;28;20188;-45
2023/12/22 06:58:48;;;;;;;10.20;1.83;;;;;;;2.22;90.95;98586.31;5012207;28;20192;-43
2023/12/22 07:01:21;;;;;;;9.38;1.60;;;;;;;2.25;91.02;98608.19;5012250;28;20181;-43
2023/12/22 07:03:48;;;;;;;8.98;2.28;;;;;;;2.26;91.62;98609.91;5012223;28;20181;-43
2023/12/22 07:06:18;;;;;;;9.90;1.80;;;;;;;2.17;91.57;98615.56;5009633;28;20196;-42
2023/12/22 07:08:44;;;;;;;8.40;1.40;;;;;;;2.21;91.06;98596.03;5011239;28;20689;-43
2023/12/22 07:11:12;;;;;;;8.95;1.52;;;;;;;2.19;90.85;98591.72;5012089;28;20188;-42
2023/12/22 07:13:38;;;;;;;6.68;1.75;;;;;;;2.16;90.77;98607.69;5011342;28;20219;-45
2023/12/22 07:16:05;;;;;;;5.00;2.13;;;;;;;2.17;90.79;98620.00;5012073;28;20180;-43
2023/12/22 07:18:30;;;;;;;6.80;2.30;;;;;;;2.17;90.75;98617.34;5010875;28;20181;-43
2023/12/22 07:21:00;;;;;;;9.90;1.67;;;;;;;2.17;90.64;98635.84;5011977;28;20680;-43
2023/12/22 07:23:25;;;;;;;7.63;1.73;;;;;;;2.28;90.49;98623.06;5010248;28;20204;-44
2023/12/22 07:25:52;;;;;;;6.10;2.05;;;;;;;2.25;90.32;98639.00;5010252;28;20203;-44
2023/12/22 07:28:17;;;;;;;7.53;2.10;;;;;;;2.30;90.55;98652.06;5011511;28;20436;-45
2023/12/22 07:30:43;;;;;;;8.93;1.77;;;;;;;2.43;91.23;98664.72;5011337;28;20181;-44
2023/12/22 07:33:08;;;;;;;13.82;2.47;;;;;;;2.37;91.57;98675.53;5011202;28;20184;-45
2023/12/22 07:35:34;;;;;;;11.40;2.33;;;;;;;2.21;92.86;98701.69;5010880;28;20191;-44
2023/12/22 07:38:00;;;;;;;15.77;2.97;;;;;;;2.03;94.29;98702.38;5010448;28;20196;-45
2023/12/22 07:40:25;;;;;;;16.90;2.47;;;;;;;1.85;95.57;98730.34;5009425;28;20189;-45
2023/12/22 07:42:51;;;;;;;13.73;2.10;;;;;;;1.72;97.43;98739.63;5006949;28;20200;-45
2023/12/22 07:45:16;;;;;;;10.45;1.73;;;;;;;1.74;98.62;98751.00;5003627;28;20576;-45
2023/12/22 07:47:42;;;;;;;12.25;2.50;;;;;;;1.70;99.37;98754.66;5007012;28;20181;-44
2023/12/22 07:50:08;;;;;;;16.70;2.05;;;;;;;1.61;100.00;98758.47;5008702;28;20647;-45
2023/12/22 07:52:38;;;;;;;8.52;1.90;;;;;;;1.56;100.00;98773.63;5006641;28;20259;-44
2023/12/22 07:55:13;;;;;;;12.25;1.85;;;;;;;1.57;100.00;98773.56;5005646;28;20207;-44
2023/12/22 07:57:38;;;;;;;13.32;1.98;;;;;;;1.59;100.00;98766.44;4992817;28;20208;-42
2023/12/22 08:00:04;;;;;;;9.32;2.50;;;;;;;1.57;100.00;98781.47;5009350;28;20192;-45
2023/12/22 08:02:37;;;;;;;15.13;2.47;;;;;;;1.69;100.00;98774.06;5006161;28;20200;-44
2023/12/22 08:05:03;;;;;;;17.13;3.67;;;;;;;1.69;100.00;98766.16;5021900;28;20189;-43
2023/12/22 08:07:29;;;;;;;20.00;3.17;;;;;;;1.75;100.00;98760.63;5006026;28;20208;-45
2023/12/22 08:09:56;;;;;;;8.73;2.45;;;;;;;1.80;100.00;98770.13;5008192;28;20262;-44
2023/12/22 08:12:21;;;;;;;13.80;2.28;;;;;;;2.01;99.61;98752.66;5007847;28;20220;-45
2023/12/22 08:14:47;;;;;;;13.43;1.98;;;;;;;2.10;98.73;98740.00;5007799;28;20609;-44
2023/12/22 08:17:13;;;;;;;16.85;2.47;;;;;;;2.12;97.98;98746.09;5002714;28;20834;-44
2023/12/22 08:19:42;;;;;;;14.25;2.35;;;;;;;2.21;97.33;98756.31;5006840;28;20184;-43
2023/12/22 08:22:14;;;;;;;12.32;2.10;;;;;;;2.26;96.28;98757.84;5024870;28;20204;-42
2023/12/22 08:24:40;;;;;;;13.40;2.33;;;;;;;2.28;95.70;98741.97;5005937;28;20231;-45
2023/12/22 08:27:08;;;;;;;9.05;2.47;;;;;;;2.29;95.85;98748.94;5007899;28;20253;-44
2023/12/22 08:29:34;;;;;;;8.57;1.90;;;;;;;2.30;95.77;98748.03;5009967;28;20471;-43
2023/12/22 08:32:00;;;;;;;11.82;2.05;;;;;;;2.31;95.59;98749.75;5010385;28;20281;-44
2023/12/22 08:34:26;;;;;;;9.50;1.60;;;;;;;2.33;95.25;98768.19;5010685;28;20214;-45
2023/12/22 08:36:52;;;;;;;9.55;1.15;;;;;;;2.37;94.71;98764.53;5010360;28;20180;-45
2023/12/22 08:39:17;;;;;;;8.57;2.08;;;;;;;2.35;94.31;98771.66;5009376;28;20678;-44
2023/12/22 08:41:43;;;;;;;8.95;1.58;;;;;;;2.46;94.03;98757.09;5010537;28;20244;-44
2023/12/22 08:44:08;;;;;;;16.38;2.08;;;;;;;2.44;93.95;98766.00;5010469;28;20691;-44
2023/12/22 08:46:34;;;;;;;12.60;2.40;;;;;;;2.52;93.70;98765.72;5010867;28;20231;-44
2023/12/22 08:49:00;;;;;;;18.00;2.40;;;;;;;2.50;93.60;98762.28;5010581;28;20559;-43
2023/12/22 08:51:26;;;;;;;10.88;2.38;;;;;;;2.52;94.14;98778.94;5010148;28;20165;-43
2023/12/22 08:53:54;;;;;;;15.30;2.53;;;;;;;2.53;94.13;98778.88;5010311;28;20693;-46
2023/12/22 08:56:21;;;;;;;13.43;2.33;;;;;;;2.59;94.01;98798.94;5008701;28;20172;-44
2023/12/22 08:58:47;;;;;;;8.63;2.42;;;;;;;2.65;94.25;98796.06;5010225;28;20196;-43
2023/12/22 09:01:16;;;;;;;14.00;2.20;;;;;;;2.68;93.69;98807.34;5009530;28;20603;-45
2023/12/22 09:03:45;;;;;;;8.55;2.05;;;;;;;2.70;93.26;98806.44;5009694;28;20215;-43
2023/12/22 09:06:21;;;;;;;14.07;2.17;;;;;;;2.70;93.04;98804.66;5008029;28;20538;-44
2023/12/22 09:08:47;;;;;;;12.32;2.40;;;;;;;2.75;92.62;98805.31;5007372;28;20207;-45
2023/12/22 09:11:16;;;;;;;11.52;1.88;;;;;;;2.81;92.46;98799.81;5007464;28;20222;-44
2023/12/22 09:13:41;;;;;;;17.13;2.30;;;;;;;2.87;91.26;98820.72;5006412;28;20208;-43
2023/12/22 09:16:07;;;;;;;11.35;2.08;;;;;;;2.83;90.75;98794.47;5004272;28;20191;-43
2023/12/22 09:18:34;;;;;;;11.18;1.95;;;;;;;2.94;89.53;98794.03;5007810;28;20181;-44
2023/12/22 09:20:59;;;;;;;8.55;1.83;;;;;;;2.95;88.86;98798.41;5007417;28;20178;-43
2023/12/22 09:23:25;;;;;;;12.02;2.22;;;;;;;2.92;87.58;98794.09;5006460;28;20199;-46
2023/12/22 09:25:50;;;;;;;12.80;2.17;;;;;;;2.94;87.46;98792.25;5008141;28;20580;-42
2023/12/22 09:28:16;;;;;;;8.45;1.65;;;;;;;2.94;86.73;98775.53;5006812;28;20188;-41
2023/12/22 09:30:42;;;;;;;11.27;1.52;;;;;;;3.02;86.05;98791.97;5007972;28;20212;-46
2023/12/22 09:33:09;;;;;;;8.95;1.92;;;;;;;3.09;86.13;98786.34;5009067;28;20623;-45
2023/12/22 09:35:35;;;;;;;7.43;1.42;;;;;;;3.12;85.61;98790.63;5009602;28;20287;-45
2023/12/22 09:38:01;;;;;;;10.23;1.50;;;;;;;3.10;85.33;98792.50;5009349;28;20212;-45
2023/12/22 09:40:26;;;;;;;11.38;1.88;;;;;;;3.28;85.29;98786.47;5009483;28;20172;-43
2023/12/22 09:42:55;;;;;;;11.10;1.58;;;;;;;3.34;85.42;98793.25;5009509;28;20205;-44
2023/12/22 09:45:21;;;;;;;14.20;2.33;;;;;;;3.13;85.37;98786.19;5008674;28;20189;-43
2023/12/22 09:47:48;;;;;;;11.45;1.63;;;;;;;3.10;85.41;98795.13;5008491;28;20188;-43
2023/12/22 09:50:15;;;;;;;10.43;1.80;;;;;;;3.08;85.80;98800.50;5009509;28;20212;-43
2023/12/22 09:52:44;;;;;;;9.88;1.67;;;;;;;3.12;86.01;98795.94;5008154;28;20192;-44
2023/12/22 09:55:10;;;;;;;9.02;1.75;;;;;;;3.08;86.20;98826.06;5008327;28;20258;-44
2023/12/22 09:57:37;;;;;;;9.38;1.60;;;;;;;3.22;85.92;98815.81;5008299;28;20523;-44
2023/12/22 10:00:06;;;;;;;9.30;2.00;;;;;;;3.28;86.01;98817.38;5009129;28;20188;-46
2023/12/22 10:02:34;;;;;;;9.90;1.73;;;;;;;3.20;86.32;98816.81;5009164;28;20204;-44
2023/12/22 10:05:01;;;;;;;8.77;1.85;;;;;;;3.28;85.92;98822.66;5009374;28;20180;-43
2023/12/22 10:07:26;;;;;;;12.30;2.10;;;;;;;3.34;85.21;98816.22;5009591;28;20674;-44
2023/12/22 10:09:55;;;;;;;10.27;1.90;;;;;;;3.29;85.41;98803.19;5010784;28;20280;-45
2023/12/22 10:12:21;;;;;;;8.93;1.73;;;;;;;3.33;85.53;98811.88;5008623;28;20562;-44
2023/12/22 10:14:49;;;;;;;11.10;1.83;;;;;;;3.39;85.23;98816.91;5009908;28;20698;-44
2023/12/22 10:17:16;;;;;;;11.23;1.73;;;;;;;3.32;85.15;98812.78;5012657;28;20193;-43
2023/12/22 10:19:42;;;;;;;8.38;1.52;;;;;;;3.34;85.05;98818.88;5011003;28;20193;-44
2023/12/22 10:22:07;;;;;;;9.98;1.92;;;;;;;3.36;84.18;98802.00;5006959;28;20242;-44
2023/12/22 10:24:50;;;;;;;13.32;1.75;;;;;;;3.28;83.84;98794.41;5013152;28;20179;-44
2023/12/22 10:27:22;;;;;;;11.77;2.95;;;;;;;3.32;83.46;98794.25;5012585;28;20188;-43
2023/12/22 10:29:55;;;;;;;7.30;1.92;;;;;;;3.16;83.02;98789.59;5013483;28;20208;-44
2023/12/22 10:32:21;;;;;;;5.53;1.80;;;;;;;3.25;82.99;98796.28;5012205;28;20204;-43
2023/12/22 10:34:47;;;;;;;7.55;1.70;;;;;;;3.29;83.07;98772.28;5017128;28;20193;-44
2023/12/22 10:37:13;;;;;;;12.25;2.10;;;;;;;3.39;82.98;98777.19;5011630;28;20181;-46
2023/12/22 10:39:39;;;;;;;6.20;1.58;;;;;;;3.29;82.73;98788.16;5012699;28;20192;-44
2023/12/22 10:42:05;;;;;;;13.70;2.22;;;;;;;3.29;82.82;98790.81;5012866;28;20642;-45
2023/12/22 10:44:31;;;;;;;7.97;1.60;;;;;;;3.29;83.78;98803.19;5011957;28;20298;-44
2023/12/22 10:46:58;;;;;;;11.48;1.65;;;;;;;3.29;84.57;98822.56;5013089;28;20298;-44
2023/12/22 10:49:24;;;;;;;6.15;1.60;;;;;;;3.26;84.86;98830.66;5011488;28;20787;-42
2023/12/22 10:51:51;;;;;;;8.23;1.63;;;;;;;3.33;85.46;98830.41;5012351;28;20638;-43
2023/12/22 10:54:17;;;;;;;7.70;1.77;;;;;;;3.21;85.38;98842.31;5012012;28;20195;-44
2023/12/22 10:56:43;;;;;;;11.18;2.00;;;;;;;3.21;85.56;98853.75;5027884;28;20671;-44
2023/12/22 10:59:09;;;;;;;8.93;1.88;;;;;;;3.19;85.74;98846.81;5005360;28;20184;-44
2023/12/22 11:01:38;;;;;;;9.20;2.15;;;;;;;3.15;86.51;98859.34;5012289;28;20231;-44
2023/12/22 11:04:09;;;;;;;8.73;1.67;;;;;;;3.15;86.75;98854.03;5011874;28;20193;-45
2023/12/22 11:06:36;;;;;;;7.43;1.40;;;;;;;3.25;86.83;98858.03;5011721;28;20226;-44
2023/12/22 11:09:08;;;;;;;6.40;1.23;;;;;;;3.23;86.60;98862.50;5024243;22;20237;-44
2023/12/22 11:11:35;;;;;;;9.38;1.73;;;;;;;3.21;86.85;98877.59;5002557;28;20193;-45
2023/12/22 11:14:01;;;;;;;8.55;1.30;;;;;;;3.12;87.18;98867.38;5004035;28;20745;-44
2023/12/22 11:16:30;;;;;;;5.45;1.50;;;;;;;2.97;87.07;98875.91;5005744;28;20172;-43
2023/12/22 11:18:56;;;;;;;10.15;1.52;;;;;;;3.11;87.41;98867.44;5004691;28;20185;-45
2023/12/22 11:21:25;;;;;;;6.47;2.15;;;;;;;3.16;87.45;98862.84;5004934;28;20243;-45
2023/12/22 11:23:52;;;;;;;5.65;1.38;;;;;;;3.23;87.49;98851.94;4998887;28;20578;-45
2023/12/22 11:26:19;;;;;;;14.70;1.88;;;;;;;3.11;87.82;98878.88;5003989;28;20695;-43
2023/12/22 11:28:49;;;;;;;7.45;1.35;;;;;;;3.15;87.94;98864.63;5001379;28;20202;-44
2023/12/22 11:31:18;;;;;;;6.43;1.48;;;;;;;3.15;87.74;98866.38;5007116;28;20428;-44